Time;durP1;ratioP1;P1;durP2;ratioP2;P2;SDS_P1;SDS_P2;PMS_P1;PMS_P2;Temp;Humidity;BMP_temperature;BMP_pressure;BME280_temperature;BME280_humidity;BME280_pressure;Samples;Min_cycle;Max_cycle;Signal;HPM_P1;HPM_P2
2022/10/25 18:20:30;;;;;;;32.20;19.85;;;;;;;;;;4974973;22;1258351;-64
2022/10/25 18:22:57;;;;;;;36.83;19.75;;;;;;;;;;5009097;28;20136;-50
2022/10/25 18:25:24;;;;;;;33.63;19.17;;;;;;;;;;4999554;28;20050;-40
2022/10/25 18:27:50;;;;;;;38.20;19.35;;;;;;;;;;5022886;28;20037;-40
2022/10/25 18:30:17;;;;;;;51.92;19.67;;;;;;;;;;5019708;28;20041;-46
2022/10/25 18:32:43;;;;;;;52.13;17.90;;;;;;;;;;5022725;28;20038;-38
2022/10/25 18:35:10;;;;;;;55.28;19.27;;;;;;;;;;5026043;28;20037;-57
2022/10/25 18:37:36;;;;;;;41.08;18.55;;;;;;;;;;5023302;28;20546;-47
2022/10/25 18:40:03;;;;;;;42.67;16.92;;;;;;;;;;5019038;28;20651;-37
2022/10/25 18:42:29;;;;;;;38.25;16.42;;;;;;;;;;4834560;28;268834;-38
2022/10/25 18:44:56;;;;;;;34.40;15.75;;;;;;;;;;4984244;28;20081;-39
2022/10/25 18:47:22;;;;;;;32.53;15.38;;;;;;;;;;4969530;28;364160;-39
2022/10/25 18:49:49;;;;;;;28.80;16.92;;;;;;;;;;5011365;28;20057;-39
2022/10/25 18:52:15;;;;;;;33.20;15.82;;;;;;;;;;5044360;28;20037;-39
2022/10/25 18:54:42;;;;;;;31.55;14.98;;;;;;;;;;4725701;28;74841;-39
2022/10/25 18:57:08;;;;;;;33.20;15.55;;;;;;;;;;5011988;28;20040;-39
2022/10/25 18:59:35;;;;;;;27.30;15.35;;;;;;;;;;5060219;28;20415;-39
2022/10/25 19:02:01;;;;;;;27.77;16.17;;;;;;;;;;5045819;28;20037;-40
2022/10/25 19:04:28;;;;;;;26.55;15.68;;;;;;;;;;5045017;28;20048;-39
2022/10/25 19:06:54;;;;;;;24.50;15.40;;;;;;;;;;5048078;28;20044;-39
2022/10/25 19:09:21;;;;;;;55.33;15.10;;;;;;;;;;5048698;28;20463;-39
2022/10/25 19:11:47;;;;;;;38.95;14.98;;;;;;;;;;4993277;28;20052;-37
2022/10/25 19:14:14;;;;;;;26.92;14.10;;;;;;;;;;5045000;28;20145;-39
2022/10/25 19:16:41;;;;;;;25.42;13.98;;;;;;;;;;5034382;28;20044;-39
2022/10/25 19:19:07;;;;;;;27.77;13.82;;;;;;;;;;5044386;28;20064;-38
2022/10/25 19:21:34;;;;;;;29.13;14.40;;;;;;;;;;5048169;28;20041;-38
2022/10/25 19:29:34;;;;;;;31.63;12.20;;;;;;;;;;5062288;28;20380;-61
2022/10/25 19:32:00;;;;;;;17.88;10.88;;;;;;;;;;5046531;28;20072;-60
2022/10/25 19:34:27;;;;;;;22.73;11.23;;;;;;;;;;5045619;28;20128;-66
2022/10/25 19:36:53;;;;;;;26.55;11.50;;;;;;;;;;5045625;28;20040;-66
2022/10/25 19:39:20;;;;;;;17.38;10.32;;;;;;;;;;5042868;28;20045;-67
2022/10/25 19:41:47;;;;;;;20.00;10.52;;;;;;;;;;5045406;28;20400;-65
2022/10/25 19:44:13;;;;;;;19.15;10.25;;;;;;;;;;5045749;28;20045;-67
2022/10/25 19:46:40;;;;;;;18.80;10.10;;;;;;;;;;5046118;28;20041;-68
2022/10/25 19:49:08;;;;;;;18.60;9.52;;;;;;;;;;5041546;28;20034;-68
2022/10/25 19:51:35;;;;;;;19.58;11.20;;;;;;;;;;5041348;28;20045;-69
2022/10/25 19:54:01;;;;;;;15.50;9.88;;;;;;;;;;5041292;28;20038;-69
2022/10/25 19:56:28;;;;;;;20.27;9.95;;;;;;;;;;5042946;28;20087;-68
2022/10/25 19:58:55;;;;;;;18.42;9.85;;;;;;;;;;5044085;28;20052;-70
2022/10/25 20:01:23;;;;;;;14.95;10.27;;;;;;;;;;5040277;28;20120;-70
2022/10/25 20:03:50;;;;;;;17.98;9.60;;;;;;;;;;5041401;28;20044;-70
2022/10/25 20:06:19;;;;;;;15.75;10.13;;;;;;;;;;5040765;28;20033;-69
2022/10/25 20:08:50;;;;;;;18.30;9.63;;;;;;;;;;5041397;28;20038;-69
2022/10/25 20:11:17;;;;;;;14.73;9.40;;;;;;;;;;5044608;28;20726;-68
2022/10/25 20:13:43;;;;;;;16.90;9.88;;;;;;;;;;5042590;28;20045;-69
2022/10/25 20:16:11;;;;;;;16.40;9.00;;;;;;;;;;5040915;28;20120;-68
2022/10/25 20:18:38;;;;;;;14.73;9.15;;;;;;;;;;5040589;28;20052;-68
2022/10/25 20:21:07;;;;;;;14.25;9.45;;;;;;;;;;5044117;28;20144;-67
2022/10/25 20:23:34;;;;;;;11.88;8.52;;;;;;;;;;5041611;28;20053;-68
2022/10/25 20:26:11;;;;;;;19.83;9.23;;;;;;;;;;5045263;28;20139;-70
2022/10/25 20:28:38;;;;;;;16.70;9.25;;;;;;;;;;5040761;28;20057;-70
2022/10/25 20:31:05;;;;;;;16.92;9.15;;;;;;;;;;5040287;28;20040;-68
2022/10/25 20:33:31;;;;;;;13.18;9.32;;;;;;;;;;5043612;28;20049;-68
2022/10/25 20:36:01;;;;;;;13.63;9.13;;;;;;;;;;5040638;28;20037;-68
2022/10/25 20:38:29;;;;;;;19.38;9.73;;;;;;;;;;5042205;28;20048;-68
2022/10/25 20:41:00;;;;;;;15.93;9.00;;;;;;;;;;5030187;28;20041;-69
2022/10/25 20:43:27;;;;;;;14.85;8.55;;;;;;;;;;5026905;28;20700;-69
2022/10/25 20:45:53;;;;;;;11.43;8.48;;;;;;;;;;5027239;28;20042;-69
2022/10/25 20:48:20;;;;;;;15.43;9.02;;;;;;;;;;5026745;28;20465;-68
2022/10/25 20:50:48;;;;;;;17.25;9.10;;;;;;;;;;5026670;28;20030;-68
2022/10/25 20:53:15;;;;;;;14.45;9.13;;;;;;;;;;5031412;28;20041;-68
2022/10/25 20:55:47;;;;;;;14.00;8.68;;;;;;;;;;5028439;28;20046;-68
2022/10/25 20:58:14;;;;;;;14.35;9.02;;;;;;;;;;5030725;28;20049;-47
2022/10/25 21:00:40;;;;;;;13.43;8.68;;;;;;;;;;5026638;28;20050;-66
2022/10/25 21:03:07;;;;;;;11.52;8.40;;;;;;;;;;5030044;28;20034;-69
2022/10/25 21:05:34;;;;;;;18.38;8.65;;;;;;;;;;5026808;28;20139;-69
2022/10/25 21:08:03;;;;;;;18.20;8.55;;;;;;;;;;5030578;28;20041;-69
2022/10/25 21:10:29;;;;;;;18.95;8.30;;;;;;;;;;5026602;28;20045;-69
2022/10/25 21:12:57;;;;;;;15.88;8.77;;;;;;;;;;5020713;28;20133;-69
2022/10/25 21:15:23;;;;;;;14.55;7.82;;;;;;;;;;5022962;28;20040;-68
2022/10/25 21:17:50;;;;;;;18.17;7.97;;;;;;;;;;5026282;28;20042;-69
2022/10/25 21:20:17;;;;;;;11.90;7.95;;;;;;;;;;5030395;28;20119;-68
2022/10/25 21:22:45;;;;;;;14.93;8.43;;;;;;;;;;5027557;28;20056;-69
2022/10/25 21:25:11;;;;;;;12.10;7.93;;;;;;;;;;5026454;28;20433;-69
2022/10/25 21:27:38;;;;;;;11.98;7.35;;;;;;;;;;5026520;28;20046;-66
2022/10/25 21:30:05;;;;;;;11.73;8.43;;;;;;;;;;5026275;28;20457;-67
2022/10/25 21:32:32;;;;;;;15.57;7.75;;;;;;;;;;5029887;28;20045;-67
2022/10/25 21:34:58;;;;;;;12.38;7.63;;;;;;;;;;5031031;28;20045;-67
2022/10/25 21:37:25;;;;;;;12.27;7.68;;;;;;;;;;5026206;28;20063;-67
2022/10/25 21:39:51;;;;;;;11.80;7.60;;;;;;;;;;5026198;28;20041;-67
2022/10/25 21:42:18;;;;;;;13.10;7.85;;;;;;;;;;5025910;28;20072;-67
2022/10/25 21:44:44;;;;;;;10.55;7.68;;;;;;;;;;5026009;28;20048;-68
2022/10/25 21:47:11;;;;;;;12.43;7.95;;;;;;;;;;5030696;28;20048;-67
2022/10/25 21:49:37;;;;;;;10.43;7.30;;;;;;;;;;5028010;28;20072;-67
2022/10/25 21:52:04;;;;;;;9.95;7.20;;;;;;;;;;5024882;28;20524;-66
2022/10/25 21:54:30;;;;;;;10.73;6.97;;;;;;;;;;5025495;28;20413;-66
2022/10/25 21:56:57;;;;;;;13.55;7.40;;;;;;;;;;5027911;28;20084;-66
2022/10/25 21:59:23;;;;;;;11.75;7.25;;;;;;;;;;5028541;28;20045;-66
2022/10/25 22:01:49;;;;;;;14.75;7.90;;;;;;;;;;5029981;28;20078;-65
2022/10/25 22:04:16;;;;;;;9.52;6.25;;;;;;;;;;5024507;28;20037;-65
2022/10/25 22:06:43;;;;;;;12.98;7.20;;;;;;;;;;5028509;28;20034;-66
2022/10/25 22:09:09;;;;;;;12.20;6.65;;;;;;;;;;5028878;28;20045;-67
2022/10/25 22:11:36;;;;;;;12.60;6.97;;;;;;;;;;5027197;28;20048;-68
2022/10/25 22:14:06;;;;;;;10.02;6.78;;;;;;;;;;5024143;28;20044;-66
2022/10/25 22:16:33;;;;;;;11.00;7.72;;;;;;;;;;5026880;28;20643;-66
2022/10/25 22:19:04;;;;;;;10.07;6.72;;;;;;;;;;5029102;28;20547;-67
2022/10/25 22:21:35;;;;;;;11.35;7.05;;;;;;;;;;5025207;28;20068;-67
2022/10/25 22:24:02;;;;;;;10.95;6.80;;;;;;;;;;5025719;28;20402;-67
2022/10/25 22:26:29;;;;;;;10.32;6.38;;;;;;;;;;5025874;28;20068;-68
2022/10/25 22:28:56;;;;;;;10.25;6.45;;;;;;;;;;5027828;28;20374;-67
2022/10/25 22:31:23;;;;;;;10.82;6.63;;;;;;;;;;5027378;28;20045;-67
2022/10/25 22:33:53;;;;;;;11.38;6.85;;;;;;;;;;5025159;28;20084;-67
2022/10/25 22:36:21;;;;;;;9.82;6.40;;;;;;;;;;5024552;28;20089;-66
2022/10/25 22:38:48;;;;;;;8.10;6.07;;;;;;;;;;5025037;28;20045;-66
2022/10/25 22:41:16;;;;;;;10.25;6.00;;;;;;;;;;5029582;28;20125;-65
2022/10/25 22:43:42;;;;;;;10.07;6.47;;;;;;;;;;5025140;28;20046;-66
2022/10/25 22:46:10;;;;;;;18.02;6.55;;;;;;;;;;5025254;28;20048;-66
2022/10/25 22:48:37;;;;;;;14.30;5.80;;;;;;;;;;5024665;28;20045;-66
2022/10/25 22:51:04;;;;;;;10.35;5.85;;;;;;;;;;5027955;28;20057;-66
2022/10/25 22:53:32;;;;;;;11.05;6.55;;;;;;;;;;5028470;28;20041;-65
2022/10/25 22:56:00;;;;;;;10.43;5.55;;;;;;;;;;5030001;28;20033;-66
2022/10/25 22:58:27;;;;;;;9.68;5.93;;;;;;;;;;5025618;28;20049;-66
2022/10/25 23:01:02;;;;;;;10.68;6.63;;;;;;;;;;5019512;28;20422;-66
2022/10/25 23:03:34;;;;;;;8.07;5.43;;;;;;;;;;5020762;28;20060;-66
2022/10/25 23:06:01;;;;;;;7.38;5.78;;;;;;;;;;5024750;28;20037;-66
2022/10/25 23:08:28;;;;;;;8.80;5.78;;;;;;;;;;5026803;28;20054;-66
2022/10/25 23:10:58;;;;;;;8.10;5.80;;;;;;;;;;5027173;28;20040;-65
2022/10/25 23:13:24;;;;;;;9.13;5.60;;;;;;;;;;5024147;28;20041;-66
2022/10/25 23:15:51;;;;;;;10.00;6.13;;;;;;;;;;5024591;28;20075;-66
2022/10/25 23:18:17;;;;;;;8.10;5.95;;;;;;;;;;5028067;28;20042;-67
2022/10/25 23:20:48;;;;;;;7.60;5.90;;;;;;;;;;5013315;28;20029;-67
2022/10/25 23:23:14;;;;;;;10.85;6.38;;;;;;;;;;5029482;28;20037;-67
2022/10/25 23:25:41;;;;;;;6.75;5.20;;;;;;;;;;5026853;28;20414;-67
2022/10/25 23:28:07;;;;;;;7.70;5.18;;;;;;;;;;5022386;28;20116;-67
2022/10/25 23:30:34;;;;;;;8.27;5.53;;;;;;;;;;5027644;28;20152;-65
2022/10/25 23:33:01;;;;;;;9.82;6.22;;;;;;;;;;5024355;28;20053;-66
2022/10/25 23:35:27;;;;;;;10.18;5.80;;;;;;;;;;5026790;28;20045;-66
2022/10/25 23:37:54;;;;;;;8.77;5.95;;;;;;;;;;5027043;28;20037;-67
2022/10/25 23:40:20;;;;;;;10.32;5.90;;;;;;;;;;5023867;28;20065;-67
2022/10/25 23:42:47;;;;;;;10.73;5.28;;;;;;;;;;5025822;28;20113;-66
2022/10/25 23:45:13;;;;;;;10.18;4.97;;;;;;;;;;5026162;28;20042;-66
2022/10/25 23:47:40;;;;;;;14.45;5.57;;;;;;;;;;5025527;28;20501;-66
2022/10/25 23:50:07;;;;;;;9.68;5.60;;;;;;;;;;5027037;28;20071;-65
2022/10/25 23:52:33;;;;;;;8.57;5.50;;;;;;;;;;5024099;28;20057;-66
2022/10/25 23:55:00;;;;;;;8.40;5.68;;;;;;;;;;5023023;28;20029;-66
2022/10/25 23:57:26;;;;;;;10.13;5.20;;;;;;;;;;5023966;28;20053;-66
2022/10/25 23:59:53;;;;;;;7.70;5.30;;;;;;;;;;5023779;28;20536;-66
